MSC Levina — 3FJR8 — position and weather

sailwx.info

Track history (hours):
 
Tides and Currents Weather Stations Pressure Air Temp Water Temp Dewpoint Dewpoint Depression Visibility Wind Speed Wind Dir Waves Ship Positions

MSC Levina

Last reported at 2015-Feb-18 16:33 UTC. Time now 2015-Mar-01 00:41 UTC.
Position S 20°08' E 057°28'.
Warning: this ship's position is 10 days out of date.

Length 227.6 m; beam 32.2 m; draft 12.1 m.

Type: Ship (hazmat cat A). MMSI: 355609000.

Date/timePositionNaut miles runAvg speedWind from/ knotsBaromVisibWave heightAir tempDewpointWater temp
2015-Feb-18 16:33S 20°08' E 057°28'1 1.2
2015-Feb-18 15:33S 20°08' E 057°30'0 0.0
2015-Feb-18 14:33S 20°08' E 057°30'0 0.0
2015-Feb-18 13:33S 20°08' E 057°30'0 0.0
2015-Feb-18 12:33S 20°08' E 057°30'0 0.0
2015-Feb-18 11:33S 20°08' E 057°30'0 0.0
2015-Feb-18 10:33S 20°08' E 057°30'0 0.0
2015-Feb-18 09:33S 20°08' E 057°30'0 0.0
2015-Feb-18 08:33S 20°08' E 057°30'0 0.0
2015-Feb-18 07:33S 20°08' E 057°30'0 0.0
2015-Feb-18 06:33S 20°08' E 057°30'0 0.0
2015-Feb-18 05:27S 20°08' E 057°30'0 0.0
2015-Feb-18 04:30S 20°08' E 057°30'0 0.0
2015-Feb-18 03:33S 20°08' E 057°30'0 0.0
2015-Feb-18 02:33S 20°08' E 057°30'0 0.0
2015-Feb-18 01:33S 20°08' E 057°30'0 0.0
2015-Feb-18 00:33S 20°08' E 057°30'0 0.0
2015-Feb-17 23:33S 20°08' E 057°30'0 0.0
2015-Feb-17 22:30S 20°08' E 057°30'0 0.0
2015-Feb-17 21:30S 20°08' E 057°30'0 0.0
2015-Feb-17 20:30S 20°08' E 057°30'0 0.0
2015-Feb-17 19:33S 20°08' E 057°30'0 0.0
2015-Feb-17 17:33S 20°08' E 057°30'0 0.0
2015-Feb-17 16:33S 20°08' E 057°30'0 0.0
2015-Feb-17 15:33S 20°08' E 057°30'0 0.0
2015-Feb-17 14:33S 20°08' E 057°30'0 0.0
2015-Feb-17 13:33S 20°08' E 057°30'0 0.0
2015-Feb-17 12:33S 20°08' E 057°30'4 3.8
2015-Feb-17 11:32S 20°07' E 057°26'5 0.3
2015-Feb-16 16:28S 20°09' E 057°21'0 0.2
2015-Feb-16 15:13S 20°08' E 057°20'0 0.2
2015-Feb-16 14:31S 20°08' E 057°20'1 0.1
2015-Feb-16 07:22S 20°08' E 057°19'1 0.3
2015-Feb-16 05:22S 20°08' E 057°19'  
Track history (hours):
 
Tides and Currents Weather Stations Pressure Air Temp Water Temp Dewpoint Dewpoint Depression Visibility Wind Speed Wind Dir Waves Ship Positions

MSC Levina

Last reported at 2015-Feb-18 16:33 UTC. Time now 2015-Mar-01 00:41 UTC.
Position S 20°08' E 057°28'.
Warning: this ship's position is 10 days out of date.

Length 227.6 m; beam 32.2 m; draft 12.1 m.

Type: Ship (hazmat cat A). MMSI: 355609000.

Date/timePositionNaut miles runAvg speedWind from/ knotsBaromVisibWave heightAir tempDewpointWater temp
2015-Feb-18 16:33S 20°08' E 057°28'1 1.2
2015-Feb-18 15:33S 20°08' E 057°30'0 0.0
2015-Feb-18 14:33S 20°08' E 057°30'0 0.0
2015-Feb-18 13:33S 20°08' E 057°30'0 0.0
2015-Feb-18 12:33S 20°08' E 057°30'0 0.0
2015-Feb-18 11:33S 20°08' E 057°30'0 0.0
2015-Feb-18 10:33S 20°08' E 057°30'0 0.0
2015-Feb-18 09:33S 20°08' E 057°30'0 0.0
2015-Feb-18 08:33S 20°08' E 057°30'0 0.0
2015-Feb-18 07:33S 20°08' E 057°30'0 0.0
2015-Feb-18 06:33S 20°08' E 057°30'0 0.0
2015-Feb-18 05:27S 20°08' E 057°30'0 0.0
2015-Feb-18 04:30S 20°08' E 057°30'0 0.0
2015-Feb-18 03:33S 20°08' E 057°30'0 0.0
2015-Feb-18 02:33S 20°08' E 057°30'0 0.0
2015-Feb-18 01:33S 20°08' E 057°30'0 0.0
2015-Feb-18 00:33S 20°08' E 057°30'0 0.0
2015-Feb-17 23:33S 20°08' E 057°30'0 0.0
2015-Feb-17 22:30S 20°08' E 057°30'0 0.0
2015-Feb-17 21:30S 20°08' E 057°30'0 0.0
2015-Feb-17 20:30S 20°08' E 057°30'0 0.0
2015-Feb-17 19:33S 20°08' E 057°30'0 0.0
2015-Feb-17 17:33S 20°08' E 057°30'0 0.0
2015-Feb-17 16:33S 20°08' E 057°30'0 0.0
2015-Feb-17 15:33S 20°08' E 057°30'0 0.0
2015-Feb-17 14:33S 20°08' E 057°30'0 0.0
2015-Feb-17 13:33S 20°08' E 057°30'0 0.0
2015-Feb-17 12:33S 20°08' E 057°30'4 3.8
2015-Feb-17 11:32S 20°07' E 057°26'5 0.3
2015-Feb-16 16:28S 20°09' E 057°21'0 0.2
2015-Feb-16 15:13S 20°08' E 057°20'0 0.2
2015-Feb-16 14:31S 20°08' E 057°20'1 0.1
2015-Feb-16 07:22S 20°08' E 057°19'1 0.3
2015-Feb-16 05:22S 20°08' E 057°19'  

Dump ship's entire track history